createdAt,value
2023-05-20T00:02:24.960Z,13.95
2023-05-20T00:04:51.485Z,14.46
2023-05-20T00:07:17.939Z,14.06
2023-05-20T00:09:44.400Z,14.29
2023-05-20T00:12:10.845Z,14.69
2023-05-20T00:14:37.369Z,14.36
2023-05-20T00:17:03.809Z,14.33
2023-05-20T00:19:30.271Z,13.98
2023-05-20T00:21:56.718Z,14.37
2023-05-20T00:24:23.101Z,14.75
2023-05-20T00:26:49.491Z,15.06
2023-05-20T00:29:15.926Z,14.29
2023-05-20T00:31:42.448Z,14.39
2023-05-20T00:34:08.904Z,14.45
2023-05-20T00:36:35.323Z,14.46
2023-05-20T00:39:01.722Z,14.74
2023-05-20T00:41:28.146Z,14.48
2023-05-20T00:43:54.557Z,14.40
2023-05-20T00:46:20.982Z,14.90
2023-05-20T00:48:47.470Z,14.85
2023-05-20T00:51:13.870Z,14.73
2023-05-20T00:53:40.313Z,18.00
2023-05-20T00:56:06.707Z,14.25
2023-05-20T00:58:33.151Z,14.73
2023-05-20T01:00:59.595Z,14.58
2023-05-20T01:03:26.206Z,14.47
2023-05-20T01:05:52.753Z,14.52
2023-05-20T01:08:19.199Z,15.04
2023-05-20T01:10:45.634Z,14.99
2023-05-20T01:13:12.030Z,14.80
2023-05-20T01:15:38.716Z,14.32
2023-05-20T01:18:05.174Z,15.32
2023-05-20T01:20:31.609Z,14.87
2023-05-20T01:22:58.056Z,14.60
2023-05-20T01:25:24.497Z,14.98
2023-05-20T01:27:50.971Z,14.95
2023-05-20T01:30:17.350Z,14.56
2023-05-20T01:32:43.786Z,14.46
2023-05-20T01:35:10.276Z,14.34
2023-05-20T01:37:36.681Z,14.49
2023-05-20T01:40:03.120Z,14.21
2023-05-20T01:42:29.669Z,14.51
2023-05-20T01:44:56.103Z,14.55
2023-05-20T01:47:22.672Z,14.19
2023-05-20T01:49:49.122Z,14.64
2023-05-20T01:52:15.500Z,13.99
2023-05-20T01:54:41.939Z,14.14
2023-05-20T01:57:08.426Z,13.99
2023-05-20T01:59:34.846Z,14.13
2023-05-20T02:02:01.299Z,14.01
2023-05-20T02:04:27.756Z,13.74
2023-05-20T02:06:54.158Z,13.95
2023-05-20T02:09:20.544Z,14.11
2023-05-20T02:11:46.980Z,13.70
2023-05-20T02:14:13.488Z,13.76
2023-05-20T02:16:39.978Z,13.83
2023-05-20T02:19:06.412Z,14.01
2023-05-20T02:21:32.847Z,14.01
2023-05-20T02:23:59.227Z,13.55
2023-05-20T02:26:25.657Z,14.13
2023-05-20T02:28:52.116Z,14.83
2023-05-20T02:31:18.643Z,13.93
2023-05-20T02:33:45.208Z,14.90
2023-05-20T02:36:11.742Z,14.82
2023-05-20T02:38:38.159Z,14.48
2023-05-20T02:41:04.656Z,14.19
2023-05-20T02:43:31.108Z,14.57
2023-05-20T02:45:57.565Z,14.20
2023-05-20T02:48:23.974Z,14.49
2023-05-20T02:50:50.411Z,14.71
2023-05-20T02:53:16.888Z,14.60
2023-05-20T02:55:43.303Z,14.30
2023-05-20T02:58:09.692Z,14.00
2023-05-20T03:00:36.120Z,14.71
2023-05-20T03:03:02.621Z,14.47
2023-05-20T03:05:29.063Z,14.15
2023-05-20T03:07:55.675Z,14.29
2023-05-20T03:10:22.065Z,13.95
2023-05-20T03:12:48.454Z,14.01
2023-05-20T03:15:14.941Z,14.46
2023-05-20T03:17:41.413Z,14.22
2023-05-20T03:20:07.832Z,14.32
2023-05-20T03:22:34.211Z,13.72
2023-05-20T03:25:00.660Z,13.98
2023-05-20T03:27:27.078Z,14.51
2023-05-20T03:29:53.508Z,14.76
2023-05-20T03:32:19.926Z,14.16
2023-05-20T03:34:46.380Z,15.03
2023-05-20T03:37:12.771Z,15.02
2023-05-20T03:39:39.205Z,15.56
2023-05-20T03:42:05.714Z,15.98
2023-05-20T03:44:32.152Z,15.73
2023-05-20T03:46:58.692Z,15.34
2023-05-20T03:49:25.215Z,15.50
2023-05-20T03:51:51.662Z,15.15
2023-05-20T03:54:18.111Z,14.90
2023-05-20T03:56:44.511Z,14.95
2023-05-20T03:59:10.906Z,15.09
2023-05-20T04:01:37.345Z,15.75
2023-05-20T04:04:03.871Z,15.05
2023-05-20T04:06:30.360Z,15.33
2023-05-20T04:08:56.752Z,15.17
2023-05-20T04:11:23.176Z,15.26
2023-05-20T04:13:49.622Z,15.70
2023-05-20T04:16:16.045Z,16.06
2023-05-20T04:18:42.532Z,15.72
2023-05-20T04:21:09.020Z,15.53
2023-05-20T04:23:35.487Z,15.59
2023-05-20T04:26:01.952Z,16.45
2023-05-20T04:28:28.363Z,16.45
2023-05-20T04:30:54.824Z,15.57
2023-05-20T04:33:21.274Z,16.03
2023-05-20T04:35:47.721Z,16.18
2023-05-20T04:38:14.107Z,16.13
2023-05-20T04:40:40.547Z,15.93
2023-05-20T04:43:07.021Z,15.64
2023-05-20T04:45:33.766Z,15.81
2023-05-20T04:48:00.450Z,16.20
2023-05-20T04:50:26.933Z,17.06
2023-05-20T04:52:53.321Z,16.40
2023-05-20T04:55:19.759Z,16.51
2023-05-20T04:57:46.198Z,17.00
2023-05-20T05:00:12.793Z,16.27
2023-05-20T05:02:39.379Z,16.28
2023-05-20T05:05:05.955Z,16.09
2023-05-20T05:07:32.563Z,16.52
2023-05-20T05:09:58.987Z,15.82
2023-05-20T05:12:25.371Z,15.73
2023-05-20T05:14:51.802Z,16.71
2023-05-20T05:17:18.198Z,16.46
2023-05-20T05:19:44.655Z,16.11
2023-05-20T05:22:11.093Z,16.30
2023-05-20T05:24:37.540Z,16.53
2023-05-20T05:27:03.944Z,16.46
2023-05-20T05:29:30.327Z,16.57
2023-05-20T05:31:56.776Z,16.56
2023-05-20T05:34:23.174Z,16.76
2023-05-20T05:36:49.611Z,16.73
2023-05-20T05:39:16.048Z,16.61
2023-05-20T05:41:42.450Z,16.17
2023-05-20T05:44:08.826Z,16.07
2023-05-20T05:46:35.442Z,16.43
2023-05-20T05:49:01.918Z,16.58
2023-05-20T05:51:28.306Z,17.18
2023-05-20T05:53:54.674Z,16.89
2023-05-20T05:56:21.123Z,16.26
2023-05-20T05:58:47.569Z,16.47
2023-05-20T06:01:14.056Z,16.10
2023-05-20T06:03:40.575Z,15.68
2023-05-20T06:06:07.085Z,15.82
2023-05-20T06:08:33.549Z,15.98
2023-05-20T06:11:00.010Z,15.80
2023-05-20T06:13:26.393Z,16.34
2023-05-20T06:15:52.788Z,18.62
2023-05-20T06:18:19.216Z,16.82
2023-05-20T06:20:45.631Z,16.82
2023-05-20T06:23:12.065Z,17.21
2023-05-20T06:25:38.525Z,16.52
2023-05-20T06:28:04.918Z,16.79
2023-05-20T06:30:31.379Z,16.23
2023-05-20T06:32:57.789Z,17.00
2023-05-20T06:35:24.199Z,16.44
2023-05-20T06:37:50.677Z,17.28
2023-05-20T06:40:17.121Z,17.07
2023-05-20T06:42:43.551Z,16.98
2023-05-20T06:45:09.938Z,16.29
2023-05-20T06:47:36.426Z,16.54
2023-05-20T06:50:02.886Z,16.84
2023-05-20T06:52:29.284Z,16.94
2023-05-20T06:54:55.722Z,16.73
2023-05-20T06:57:22.108Z,17.62
2023-05-20T06:59:48.495Z,16.82
2023-05-20T07:02:14.959Z,17.10
2023-05-20T07:04:41.442Z,16.81
2023-05-20T07:07:07.979Z,16.82
2023-05-20T07:09:34.355Z,16.74
2023-05-20T07:12:00.743Z,16.37
2023-05-20T07:14:27.140Z,15.98
2023-05-20T07:16:53.571Z,16.34
2023-05-20T07:19:19.999Z,16.18
2023-05-20T07:21:46.467Z,15.46
2023-05-20T07:24:12.926Z,15.29
2023-05-20T07:26:39.331Z,15.07
2023-05-20T07:29:05.783Z,14.14
2023-05-20T07:31:32.307Z,14.71
2023-05-20T07:33:58.731Z,13.47
2023-05-20T07:36:25.180Z,14.12
2023-05-20T07:39:01.809Z,13.53
2023-05-20T07:41:30.743Z,14.06
2023-05-20T07:43:57.185Z,13.23
2023-05-20T07:46:23.614Z,12.82
2023-05-20T07:48:50.068Z,12.68
2023-05-20T07:51:16.481Z,12.94
2023-05-20T07:53:42.929Z,12.46
2023-05-20T07:56:09.386Z,11.63
2023-05-20T07:58:35.776Z,11.04
2023-05-20T08:01:02.205Z,10.92
2023-05-20T08:03:28.742Z,10.91
2023-05-20T08:05:55.272Z,11.47
2023-05-20T08:08:21.678Z,11.56
2023-05-20T08:10:48.058Z,11.92
2023-05-20T08:13:14.438Z,12.78
2023-05-20T08:15:40.874Z,13.62
2023-05-20T08:18:07.306Z,13.21
2023-05-20T08:20:33.765Z,13.74
2023-05-20T08:23:00.165Z,14.21
2023-05-20T08:25:26.698Z,13.92
2023-05-20T08:27:53.113Z,13.39
2023-05-20T08:30:19.494Z,13.62
2023-05-20T08:32:45.944Z,13.04
2023-05-20T08:35:12.349Z,13.00
2023-05-20T08:37:38.775Z,12.28
2023-05-20T08:40:05.151Z,12.71
2023-05-20T08:42:31.537Z,12.38
2023-05-20T08:44:57.980Z,13.04
2023-05-20T08:47:24.417Z,13.21
2023-05-20T08:49:50.919Z,12.56
2023-05-20T08:52:17.382Z,12.60
2023-05-20T08:54:43.780Z,12.22
2023-05-20T08:57:10.203Z,12.37
2023-05-20T08:59:36.590Z,12.79
2023-05-20T09:02:03.019Z,12.16
2023-05-20T09:04:29.551Z,11.82
2023-05-20T09:06:55.939Z,12.18
2023-05-20T09:09:22.331Z,12.51
2023-05-20T09:11:48.715Z,12.39
2023-05-20T09:14:15.234Z,12.32
2023-05-20T09:16:41.707Z,12.51
2023-05-20T09:19:08.222Z,11.60
2023-05-20T09:21:34.732Z,12.40
2023-05-20T09:24:01.133Z,12.89
2023-05-20T09:26:27.587Z,13.32
2023-05-20T09:28:53.974Z,12.90
2023-05-20T09:31:20.422Z,12.94
2023-05-20T09:33:46.837Z,12.73
2023-05-20T09:36:14.622Z,13.07
2023-05-20T09:38:42.870Z,12.15
2023-05-20T09:41:09.262Z,12.71
2023-05-20T09:43:35.711Z,12.67
2023-05-20T09:46:02.131Z,12.70
2023-05-20T09:48:28.537Z,13.07
2023-05-20T09:50:54.945Z,12.82
2023-05-20T09:53:21.338Z,13.35
2023-05-20T09:55:47.768Z,13.77
2023-05-20T09:58:16.163Z,12.83
2023-05-20T10:00:42.841Z,12.74
2023-05-20T10:03:09.369Z,12.45
2023-05-20T10:05:35.992Z,12.32
2023-05-20T10:08:02.584Z,12.39
2023-05-20T10:10:28.978Z,11.94
2023-05-20T10:12:55.370Z,11.65
2023-05-20T10:15:21.750Z,11.59
2023-05-20T10:17:48.175Z,12.22
2023-05-20T10:20:14.632Z,12.03
2023-05-20T10:22:41.097Z,12.97
2023-05-20T10:25:07.519Z,13.37
2023-05-20T10:27:33.956Z,13.09
2023-05-20T10:30:00.410Z,12.90
2023-05-20T10:32:26.876Z,12.60
2023-05-20T10:34:53.380Z,12.79
2023-05-20T10:37:19.778Z,12.18
2023-05-20T10:39:46.226Z,12.18
2023-05-20T10:42:12.666Z,12.43
2023-05-20T10:44:39.058Z,13.48
2023-05-20T10:49:34.774Z,12.25
2023-05-20T10:52:01.228Z,12.80
2023-05-20T10:54:27.761Z,12.70
2023-05-20T10:56:54.228Z,12.87
2023-05-20T10:59:20.715Z,13.14
2023-05-20T11:01:47.156Z,12.53
2023-05-20T11:04:13.683Z,12.60
2023-05-20T11:06:40.198Z,12.36
2023-05-20T11:09:06.653Z,12.44
2023-05-20T11:11:33.065Z,12.10
2023-05-20T11:13:59.454Z,12.76
2023-05-20T11:16:25.936Z,12.16
2023-05-20T11:18:52.445Z,12.89
2023-05-20T11:21:18.839Z,13.13
2023-05-20T11:23:45.220Z,13.34
2023-05-20T11:26:11.611Z,13.02
2023-05-20T11:28:38.030Z,12.52
2023-05-20T11:31:04.416Z,13.03
2023-05-20T11:33:30.792Z,12.54
2023-05-20T11:35:57.246Z,12.61
2023-05-20T11:38:23.691Z,12.74
2023-05-20T11:40:51.545Z,13.20
2023-05-20T11:43:18.276Z,12.83
2023-05-20T11:45:44.791Z,12.37
2023-05-20T11:48:11.237Z,11.89
2023-05-20T11:50:37.733Z,13.28
2023-05-20T11:53:04.176Z,12.57
2023-05-20T11:55:30.618Z,12.48
2023-05-20T11:57:57.016Z,13.11
2023-05-20T12:00:23.441Z,13.23
2023-05-20T12:02:49.924Z,13.26
2023-05-20T12:05:16.367Z,13.08
2023-05-20T12:07:42.808Z,13.52
2023-05-20T12:10:09.245Z,13.28
2023-05-20T12:12:35.688Z,13.75
2023-05-20T12:15:02.070Z,13.65
2023-05-20T12:17:28.536Z,13.43
2023-05-20T12:19:54.950Z,12.99
2023-05-20T12:22:21.357Z,13.78
2023-05-20T12:24:47.787Z,13.55
2023-05-20T12:27:14.191Z,13.18
2023-05-20T12:29:40.619Z,13.29
2023-05-20T12:32:07.165Z,13.23
2023-05-20T12:34:33.724Z,13.07
2023-05-20T12:37:00.167Z,12.19
2023-05-20T12:39:26.567Z,12.85
2023-05-20T12:41:53.019Z,12.04
2023-05-20T12:44:19.446Z,11.93
2023-05-20T12:46:45.864Z,12.51
2023-05-20T12:49:12.271Z,12.85
2023-05-20T12:51:38.697Z,12.58
2023-05-20T12:54:05.128Z,12.52
2023-05-20T12:56:31.582Z,12.86
2023-05-20T12:58:57.982Z,13.10
2023-05-20T13:01:24.558Z,13.41
2023-05-20T13:03:51.024Z,12.89
2023-05-20T13:06:17.474Z,12.59
2023-05-20T13:08:43.862Z,13.45
2023-05-20T13:11:10.308Z,12.50
2023-05-20T13:13:36.764Z,12.56
2023-05-20T13:16:03.216Z,12.85
2023-05-20T13:18:29.600Z,13.13
2023-05-20T13:20:56.032Z,13.49
2023-05-20T13:23:22.484Z,13.43
2023-05-20T13:25:48.943Z,13.02
2023-05-20T13:28:15.335Z,12.74
2023-05-20T13:30:41.783Z,12.80
2023-05-20T13:33:08.361Z,12.77
2023-05-20T13:35:34.842Z,13.04
2023-05-20T13:38:01.239Z,12.80
2023-05-20T13:40:27.800Z,12.70
2023-05-20T13:42:54.195Z,13.07
2023-05-20T13:45:20.630Z,12.98
2023-05-20T13:47:47.088Z,13.38
2023-05-20T13:50:13.540Z,12.85
2023-05-20T13:52:39.946Z,13.62
2023-05-20T13:55:06.371Z,13.78
2023-05-20T13:57:32.758Z,13.54
2023-05-20T13:59:59.132Z,14.18
2023-05-20T14:02:25.632Z,13.97
2023-05-20T14:04:52.214Z,15.88
2023-05-20T14:07:18.662Z,17.77
2023-05-20T14:09:45.116Z,15.65
2023-05-20T14:12:11.578Z,16.96
2023-05-20T14:14:37.989Z,14.58
2023-05-20T14:17:04.444Z,14.22
2023-05-20T14:19:31.004Z,14.94
2023-05-20T14:21:57.568Z,15.80
2023-05-20T14:24:24.051Z,14.53
2023-05-20T14:26:50.532Z,14.48
2023-05-20T14:29:16.934Z,14.41
2023-05-20T14:31:43.410Z,14.01
2023-05-20T14:34:09.933Z,15.71
2023-05-20T14:36:36.344Z,14.65
2023-05-20T14:39:02.771Z,14.59
2023-05-20T14:41:29.173Z,15.02
2023-05-20T14:43:55.586Z,14.40
2023-05-20T14:46:21.988Z,14.19
2023-05-20T14:48:48.444Z,14.52
2023-05-20T14:51:14.862Z,17.20
2023-05-20T14:53:41.242Z,17.79
2023-05-20T14:56:07.695Z,14.18
2023-05-20T14:58:34.151Z,16.83
2023-05-20T15:01:00.668Z,16.50
2023-05-20T15:03:27.186Z,14.61
2023-05-20T15:05:53.616Z,15.06
2023-05-20T15:08:20.059Z,14.80
2023-05-20T15:10:46.500Z,14.51
2023-05-20T15:13:13.000Z,14.10
2023-05-20T15:15:39.411Z,13.59
2023-05-20T15:18:05.973Z,13.98
2023-05-20T15:20:32.404Z,14.19
2023-05-20T15:23:00.284Z,14.25
2023-05-20T15:25:27.400Z,13.74
2023-05-20T15:27:53.831Z,13.86
2023-05-20T15:30:20.230Z,12.90
2023-05-20T15:32:46.741Z,13.17
2023-05-20T15:35:13.252Z,12.81
2023-05-20T15:37:39.866Z,13.72
2023-05-20T15:40:06.275Z,13.75
2023-05-20T15:42:32.671Z,14.11
2023-05-20T15:44:59.110Z,14.27
2023-05-20T15:47:25.601Z,14.30
2023-05-20T15:49:52.073Z,14.40
2023-05-20T15:52:18.602Z,14.34
2023-05-20T15:54:45.004Z,14.51
2023-05-20T15:57:11.429Z,14.08
2023-05-20T15:59:37.848Z,14.04
2023-05-20T16:02:04.318Z,14.01
2023-05-20T16:04:30.869Z,13.92
2023-05-20T16:06:57.378Z,14.91
2023-05-20T16:09:23.830Z,14.08
2023-05-20T16:11:50.237Z,14.75
2023-05-20T16:14:16.780Z,14.56
2023-05-20T16:16:43.252Z,14.72
2023-05-20T16:19:09.834Z,14.06
2023-05-20T16:21:36.271Z,14.28
2023-05-20T16:24:02.663Z,14.31
2023-05-20T16:26:29.107Z,14.22
2023-05-20T16:28:55.511Z,14.06
2023-05-20T16:31:21.894Z,14.44
2023-05-20T16:33:48.286Z,14.45
2023-05-20T16:36:14.718Z,14.27
2023-05-20T16:38:41.107Z,13.86
2023-05-20T16:41:07.487Z,13.98
2023-05-20T16:43:33.869Z,13.93
2023-05-20T16:46:00.330Z,17.79
2023-05-20T16:48:26.852Z,14.39
2023-05-20T16:50:53.276Z,13.73
2023-05-20T16:53:19.661Z,13.83
2023-05-20T16:55:46.104Z,13.58
2023-05-20T16:58:12.504Z,14.73
2023-05-20T17:00:38.883Z,14.23
2023-05-20T17:03:05.310Z,14.55
2023-05-20T17:05:31.790Z,14.08
2023-05-20T17:07:58.203Z,14.71
2023-05-20T17:10:24.600Z,14.41
2023-05-20T17:12:50.987Z,14.31
2023-05-20T17:15:17.576Z,14.54
2023-05-20T17:17:44.022Z,15.28
2023-05-20T17:20:10.507Z,15.12
2023-05-20T17:22:36.880Z,14.73
2023-05-20T17:25:03.328Z,14.79
2023-05-20T17:27:29.724Z,15.07
2023-05-20T17:29:56.199Z,15.42
2023-05-20T17:32:22.690Z,14.97
2023-05-20T17:34:49.116Z,15.40
2023-05-20T17:37:15.550Z,14.30
2023-05-20T17:39:41.953Z,14.55
2023-05-20T17:42:08.374Z,14.41
2023-05-20T17:44:34.782Z,14.59
2023-05-20T17:47:01.219Z,14.97
2023-05-20T17:49:27.610Z,14.99
2023-05-20T17:51:54.005Z,14.86
2023-05-20T17:54:20.375Z,14.26
2023-05-20T17:56:46.762Z,15.04
2023-05-20T17:59:13.151Z,14.65
2023-05-20T18:01:39.606Z,14.34
2023-05-20T18:04:06.297Z,14.17
2023-05-20T18:06:32.965Z,14.48
2023-05-20T18:08:59.398Z,14.67
2023-05-20T18:11:27.131Z,14.38
2023-05-20T18:13:54.856Z,14.63
2023-05-20T18:16:21.365Z,14.99
2023-05-20T18:18:47.825Z,14.75
2023-05-20T18:21:14.236Z,14.23
2023-05-20T18:23:40.623Z,14.91
2023-05-20T18:26:07.142Z,14.89
2023-05-20T18:28:33.555Z,14.51
2023-05-20T18:31:00.006Z,14.66
2023-05-20T18:33:26.463Z,14.75
2023-05-20T18:35:52.913Z,14.64
2023-05-20T18:38:19.304Z,14.15
2023-05-20T18:40:45.744Z,14.28
2023-05-20T18:43:12.208Z,14.91
2023-05-20T18:45:38.700Z,15.17
2023-05-20T18:48:05.243Z,14.68
2023-05-20T18:50:31.714Z,14.90
2023-05-20T18:52:58.116Z,14.59
2023-05-20T18:55:24.537Z,15.13
2023-05-20T18:57:50.998Z,14.73
2023-05-20T19:00:17.471Z,14.91
2023-05-20T19:02:43.982Z,14.24
2023-05-20T19:05:10.673Z,14.85
2023-05-20T19:07:37.129Z,14.54
2023-05-20T19:10:03.585Z,14.72
2023-05-20T19:12:29.990Z,14.77
2023-05-20T19:14:56.408Z,14.46
2023-05-20T19:17:22.871Z,15.12
2023-05-20T19:19:49.354Z,14.52
2023-05-20T19:22:15.817Z,14.91
2023-05-20T19:24:42.202Z,14.63
2023-05-20T19:27:08.656Z,14.89
2023-05-20T19:29:35.062Z,15.15
2023-05-20T19:32:01.440Z,16.14
2023-05-20T19:34:27.866Z,18.02
2023-05-20T19:36:54.271Z,17.88
2023-05-20T19:39:20.681Z,18.16
2023-05-20T19:41:47.147Z,19.11
2023-05-20T19:44:13.586Z,18.99
2023-05-20T19:46:40.138Z,18.91
2023-05-20T19:49:06.689Z,18.54
2023-05-20T19:51:33.077Z,17.67
2023-05-20T19:53:59.474Z,17.20
2023-05-20T19:56:25.925Z,16.76
2023-05-20T19:58:52.332Z,16.94
2023-05-20T20:01:18.795Z,16.43
2023-05-20T20:03:45.285Z,16.64
2023-05-20T20:06:11.675Z,17.47
2023-05-20T20:08:38.061Z,16.86
2023-05-20T20:11:04.443Z,16.95
2023-05-20T20:13:30.832Z,16.63
2023-05-20T20:15:57.354Z,16.01
2023-05-20T20:18:23.805Z,16.36
2023-05-20T20:20:50.201Z,16.17
2023-05-20T20:23:16.631Z,15.49
2023-05-20T20:25:43.030Z,15.88
2023-05-20T20:28:09.415Z,15.84
2023-05-20T20:30:35.845Z,15.33
2023-05-20T20:33:02.292Z,15.28
2023-05-20T20:35:28.739Z,15.26
2023-05-20T20:37:55.152Z,15.36
2023-05-20T20:40:21.524Z,15.09
2023-05-20T20:42:47.914Z,14.40
2023-05-20T20:45:14.344Z,15.27
2023-05-20T20:47:40.871Z,14.52
2023-05-20T20:50:07.369Z,15.48
2023-05-20T20:52:33.825Z,14.79
2023-05-20T20:55:00.239Z,14.69
2023-05-20T20:57:26.693Z,14.85
2023-05-20T20:59:53.818Z,15.01
2023-05-20T21:02:20.353Z,14.85
2023-05-20T21:04:46.868Z,14.31
2023-05-20T21:07:13.270Z,15.18
2023-05-20T21:09:39.657Z,14.66
2023-05-20T21:12:06.130Z,14.70
2023-05-20T21:14:32.554Z,14.58
2023-05-20T21:16:59.063Z,14.16
2023-05-20T21:19:25.635Z,14.37
2023-05-20T21:21:52.158Z,14.54
2023-05-20T21:24:18.621Z,15.15
2023-05-20T21:26:45.027Z,15.16
2023-05-20T21:29:11.465Z,15.10
2023-05-20T21:31:37.979Z,15.04
2023-05-20T21:34:04.513Z,15.29
2023-05-20T21:36:30.966Z,14.96
2023-05-20T21:38:57.359Z,14.79
2023-05-20T21:41:23.790Z,15.45
2023-05-20T21:43:50.233Z,15.41
2023-05-20T21:46:16.740Z,14.95
2023-05-20T21:48:43.330Z,15.28
2023-05-20T21:51:09.769Z,15.38
2023-05-20T21:53:36.210Z,15.59
2023-05-20T21:56:02.655Z,15.23
2023-05-20T21:58:29.054Z,15.68
2023-05-20T22:00:55.498Z,16.02
2023-05-20T22:03:22.151Z,16.13
2023-05-20T22:05:48.671Z,15.74
2023-05-20T22:08:15.103Z,15.51
2023-05-20T22:10:41.499Z,15.27
2023-05-20T22:13:07.896Z,15.56
2023-05-20T22:15:34.506Z,15.53
2023-05-20T22:18:01.097Z,15.27
2023-05-20T22:20:27.489Z,15.24
2023-05-20T22:22:53.888Z,15.06
2023-05-20T22:25:20.380Z,15.51
2023-05-20T22:27:46.774Z,16.24
2023-05-20T22:30:13.204Z,16.29
2023-05-20T22:32:39.764Z,15.83
2023-05-20T22:35:06.275Z,15.60
2023-05-20T22:37:32.678Z,16.00
2023-05-20T22:39:59.113Z,16.85
2023-05-20T22:42:25.564Z,15.57
2023-05-20T22:44:51.957Z,16.33
2023-05-20T22:47:18.409Z,16.16
2023-05-20T22:49:44.795Z,16.67
2023-05-20T22:52:11.184Z,16.77
2023-05-20T22:54:37.559Z,16.38
2023-05-20T22:57:03.988Z,16.74
2023-05-20T22:59:30.373Z,16.33
2023-05-20T23:01:56.767Z,16.32
2023-05-20T23:04:23.264Z,16.64
2023-05-20T23:06:49.759Z,16.57
2023-05-20T23:09:16.212Z,16.22
2023-05-20T23:11:42.662Z,16.98
2023-05-20T23:14:09.133Z,17.04
2023-05-20T23:16:35.616Z,16.92
2023-05-20T23:19:02.145Z,16.40
2023-05-20T23:21:28.611Z,16.58
2023-05-20T23:23:55.072Z,16.49
2023-05-20T23:26:21.466Z,16.47
2023-05-20T23:28:47.898Z,16.02
2023-05-20T23:31:14.350Z,16.42
2023-05-20T23:33:40.911Z,16.29
2023-05-20T23:36:07.368Z,16.84
2023-05-20T23:38:33.805Z,17.28
2023-05-20T23:41:00.251Z,17.90
2023-05-20T23:43:26.642Z,17.34
2023-05-20T23:45:53.134Z,17.52
2023-05-20T23:48:19.592Z,17.58
2023-05-20T23:50:45.973Z,17.83
2023-05-20T23:53:12.362Z,18.05
2023-05-20T23:55:38.906Z,18.32
2023-05-20T23:58:05.397Z,17.74
